Chilik Southeast Airfield

Jump to: basic info | weather | comments

Related pages: nearby airports | nearby navaids

Basic information (top)

Location: lon 43.223598, lat 78.732399, elev 4,497 ft / 1,371 m msl
Status: small_airport

Weather (top)

Current conditions for Almaty Airport 74nm (138km) W (rec'd 2014/12/22 19:00Z):

UAAA 221900Z 17002MPS 0350 R23R/1200N R23L/1000N FZFG FU BKN200 M08/M10 Q1018 R88/91//60 NOSIG

Airport forecast for Almaty Airport 74nm (138km) W (rec'd 2014/12/22 18:15Z):

TAF COR UAAA 221700Z 2218/2318 16004MPS 0800 BR FU SCT030 BKN100 TX02/2308Z TNM08/2301Z 
      TEMPO 2218/2306 0200 FZFG VV001 
      TEMPO 2306/2311 04005MPS 1200 
      TEMPO 2311/2318 0200 FZFG VV001

Latest comments (top)

Spelling: OK oK its Kazakhstan♄, so you have a ... [read]

Airfield: I came across this airfield on Google, ... [read]

More... (top)

See also NOTAMs and nearby airports and navaids, or visit the Chilik Southeast Airfield page at the main OurAirports website..